sensor_id;sensor_type;location;lat;lon;timestamp;P1;durP1;ratioP1;P2;durP2;ratioP2
5945;SDS011;2998;48.206;16.394;2023-03-21T00:02:25;13.07;;;11.77;;
5945;SDS011;2998;48.206;16.394;2023-03-21T00:04:55;14.00;;;12.07;;
5945;SDS011;2998;48.206;16.394;2023-03-21T00:11:59;13.30;;;12.00;;
5945;SDS011;2998;48.206;16.394;2023-03-21T00:14:28;13.57;;;12.27;;
5945;SDS011;2998;48.206;16.394;2023-03-21T00:21:25;12.67;;;11.17;;
5945;SDS011;2998;48.206;16.394;2023-03-21T00:24:19;15.20;;;13.17;;
5945;SDS011;2998;48.206;16.394;2023-03-21T00:26:49;13.07;;;11.60;;
5945;SDS011;2998;48.206;16.394;2023-03-21T00:29:19;14.77;;;13.10;;
5945;SDS011;2998;48.206;16.394;2023-03-21T00:31:48;16.47;;;13.00;;
5945;SDS011;2998;48.206;16.394;2023-03-21T00:34:17;14.67;;;13.17;;
5945;SDS011;2998;48.206;16.394;2023-03-21T00:37:08;13.37;;;12.00;;
5945;SDS011;2998;48.206;16.394;2023-03-21T00:39:38;13.63;;;12.33;;
5945;SDS011;2998;48.206;16.394;2023-03-21T00:42:07;13.87;;;12.47;;
5945;SDS011;2998;48.206;16.394;2023-03-21T00:44:37;13.43;;;12.13;;
5945;SDS011;2998;48.206;16.394;2023-03-21T00:47:08;14.40;;;12.90;;
5945;SDS011;2998;48.206;16.394;2023-03-21T00:49:39;14.47;;;12.60;;
5945;SDS011;2998;48.206;16.394;2023-03-21T00:52:09;14.07;;;12.10;;
5945;SDS011;2998;48.206;16.394;2023-03-21T00:59:06;16.33;;;14.17;;
5945;SDS011;2998;48.206;16.394;2023-03-21T01:05:48;18.70;;;12.43;;
5945;SDS011;2998;48.206;16.394;2023-03-21T01:12:51;13.10;;;11.60;;
5945;SDS011;2998;48.206;16.394;2023-03-21T01:15:20;13.13;;;11.90;;
5945;SDS011;2998;48.206;16.394;2023-03-21T01:17:50;13.17;;;11.77;;
5945;SDS011;2998;48.206;16.394;2023-03-21T01:20:19;14.03;;;12.23;;
5945;SDS011;2998;48.206;16.394;2023-03-21T01:22:48;14.77;;;12.63;;
5945;SDS011;2998;48.206;16.394;2023-03-21T01:25:17;15.87;;;12.63;;
5945;SDS011;2998;48.206;16.394;2023-03-21T01:27:48;20.40;;;14.80;;
5945;SDS011;2998;48.206;16.394;2023-03-21T01:34:38;16.33;;;13.90;;
5945;SDS011;2998;48.206;16.394;2023-03-21T01:37:07;16.17;;;14.10;;
5945;SDS011;2998;48.206;16.394;2023-03-21T01:43:55;14.63;;;13.13;;
5945;SDS011;2998;48.206;16.394;2023-03-21T01:46:27;13.60;;;12.13;;
5945;SDS011;2998;48.206;16.394;2023-03-21T01:53:36;12.30;;;10.60;;
5945;SDS011;2998;48.206;16.394;2023-03-21T02:00:33;14.97;;;13.27;;
5945;SDS011;2998;48.206;16.394;2023-03-21T02:03:03;17.33;;;13.80;;
5945;SDS011;2998;48.206;16.394;2023-03-21T02:09:59;15.53;;;13.93;;
5945;SDS011;2998;48.206;16.394;2023-03-21T02:12:31;18.03;;;16.10;;
5945;SDS011;2998;48.206;16.394;2023-03-21T02:35:11;16.80;;;14.93;;
5945;SDS011;2998;48.206;16.394;2023-03-21T02:37:56;19.10;;;16.03;;
5945;SDS011;2998;48.206;16.394;2023-03-21T02:44:57;18.03;;;15.33;;
5945;SDS011;2998;48.206;16.394;2023-03-21T02:47:29;15.20;;;13.70;;
5945;SDS011;2998;48.206;16.394;2023-03-21T02:50:03;16.37;;;14.63;;
5945;SDS011;2998;48.206;16.394;2023-03-21T02:52:36;14.07;;;12.70;;
5945;SDS011;2998;48.206;16.394;2023-03-21T02:55:08;14.80;;;13.17;;
5945;SDS011;2998;48.206;16.394;2023-03-21T02:57:41;14.53;;;13.03;;
5945;SDS011;2998;48.206;16.394;2023-03-21T03:00:14;14.27;;;12.87;;
5945;SDS011;2998;48.206;16.394;2023-03-21T03:02:46;15.03;;;13.30;;
5945;SDS011;2998;48.206;16.394;2023-03-21T03:09:51;18.40;;;14.73;;
5945;SDS011;2998;48.206;16.394;2023-03-21T03:16:55;22.53;;;15.70;;
5945;SDS011;2998;48.206;16.394;2023-03-21T03:19:33;20.73;;;16.27;;
5945;SDS011;2998;48.206;16.394;2023-03-21T03:26:35;22.63;;;16.30;;
5945;SDS011;2998;48.206;16.394;2023-03-21T03:29:07;23.87;;;16.37;;
5945;SDS011;2998;48.206;16.394;2023-03-21T03:36:02;29.40;;;17.70;;
5945;SDS011;2998;48.206;16.394;2023-03-21T03:38:33;23.93;;;17.60;;
5945;SDS011;2998;48.206;16.394;2023-03-21T03:41:07;20.37;;;16.27;;
5945;SDS011;2998;48.206;16.394;2023-03-21T03:43:39;22.63;;;15.70;;
5945;SDS011;2998;48.206;16.394;2023-03-21T03:46:12;19.57;;;15.00;;
5945;SDS011;2998;48.206;16.394;2023-03-21T03:48:43;19.50;;;15.80;;
5945;SDS011;2998;48.206;16.394;2023-03-21T03:51:18;22.47;;;16.60;;
5945;SDS011;2998;48.206;16.394;2023-03-21T03:53:51;23.37;;;17.00;;
5945;SDS011;2998;48.206;16.394;2023-03-21T03:56:21;26.53;;;17.67;;
5945;SDS011;2998;48.206;16.394;2023-03-21T03:58:51;24.90;;;18.87;;
5945;SDS011;2998;48.206;16.394;2023-03-21T04:01:21;25.00;;;18.60;;
5945;SDS011;2998;48.206;16.394;2023-03-21T04:03:50;27.40;;;20.43;;
5945;SDS011;2998;48.206;16.394;2023-03-21T04:06:37;26.70;;;18.90;;
5945;SDS011;2998;48.206;16.394;2023-03-21T04:09:07;22.03;;;17.80;;
5945;SDS011;2998;48.206;16.394;2023-03-21T04:11:47;21.53;;;18.33;;
5945;SDS011;2998;48.206;16.394;2023-03-21T04:14:17;18.30;;;15.83;;
5945;SDS011;2998;48.206;16.394;2023-03-21T04:16:46;18.17;;;16.03;;
5945;SDS011;2998;48.206;16.394;2023-03-21T04:19:15;19.20;;;16.13;;
5945;SDS011;2998;48.206;16.394;2023-03-21T04:21:46;24.37;;;16.37;;
5945;SDS011;2998;48.206;16.394;2023-03-21T04:24:15;20.10;;;17.37;;
5945;SDS011;2998;48.206;16.394;2023-03-21T04:26:45;20.97;;;17.00;;
5945;SDS011;2998;48.206;16.394;2023-03-21T04:29:14;22.77;;;16.73;;
5945;SDS011;2998;48.206;16.394;2023-03-21T04:31:43;19.63;;;17.03;;
5945;SDS011;2998;48.206;16.394;2023-03-21T04:38:32;18.73;;;13.50;;
5945;SDS011;2998;48.206;16.394;2023-03-21T04:41:02;18.13;;;15.00;;
5945;SDS011;2998;48.206;16.394;2023-03-21T04:47:50;18.60;;;13.73;;
5945;SDS011;2998;48.206;16.394;2023-03-21T04:50:19;19.20;;;14.50;;
5945;SDS011;2998;48.206;16.394;2023-03-21T04:52:49;19.03;;;14.80;;
5945;SDS011;2998;48.206;16.394;2023-03-21T04:55:51;22.10;;;15.23;;
5945;SDS011;2998;48.206;16.394;2023-03-21T05:02:39;18.83;;;15.00;;
5945;SDS011;2998;48.206;16.394;2023-03-21T05:05:08;18.23;;;14.33;;
5945;SDS011;2998;48.206;16.394;2023-03-21T05:07:38;21.83;;;15.57;;
5945;SDS011;2998;48.206;16.394;2023-03-21T05:14:27;18.07;;;13.27;;
5945;SDS011;2998;48.206;16.394;2023-03-21T05:16:56;19.80;;;14.63;;
5945;SDS011;2998;48.206;16.394;2023-03-21T05:28:32;22.20;;;14.63;;
5945;SDS011;2998;48.206;16.394;2023-03-21T05:31:04;19.47;;;14.83;;
5945;SDS011;2998;48.206;16.394;2023-03-21T05:33:34;36.23;;;21.60;;
5945;SDS011;2998;48.206;16.394;2023-03-21T05:36:04;20.50;;;15.30;;
5945;SDS011;2998;48.206;16.394;2023-03-21T05:38:33;16.33;;;14.43;;
5945;SDS011;2998;48.206;16.394;2023-03-21T05:41:03;26.17;;;15.73;;
5945;SDS011;2998;48.206;16.394;2023-03-21T05:43:33;20.57;;;13.63;;
5945;SDS011;2998;48.206;16.394;2023-03-21T05:46:02;17.37;;;13.90;;
5945;SDS011;2998;48.206;16.394;2023-03-21T05:48:33;17.33;;;14.40;;
5945;SDS011;2998;48.206;16.394;2023-03-21T05:55:14;22.40;;;18.23;;
5945;SDS011;2998;48.206;16.394;2023-03-21T05:57:44;23.07;;;17.40;;
5945;SDS011;2998;48.206;16.394;2023-03-21T06:04:33;17.43;;;14.40;;
5945;SDS011;2998;48.206;16.394;2023-03-21T06:07:02;26.37;;;16.57;;
5945;SDS011;2998;48.206;16.394;2023-03-21T06:09:32;28.60;;;18.50;;
5945;SDS011;2998;48.206;16.394;2023-03-21T06:12:01;21.73;;;16.90;;
5945;SDS011;2998;48.206;16.394;2023-03-21T06:14:30;27.33;;;20.93;;
5945;SDS011;2998;48.206;16.394;2023-03-21T06:17:00;26.53;;;19.40;;
5945;SDS011;2998;48.206;16.394;2023-03-21T06:19:29;39.10;;;18.40;;
5945;SDS011;2998;48.206;16.394;2023-03-21T06:31:04;37.20;;;18.33;;
5945;SDS011;2998;48.206;16.394;2023-03-21T06:33:33;31.27;;;18.40;;
5945;SDS011;2998;48.206;16.394;2023-03-21T06:40:15;23.00;;;15.30;;
5945;SDS011;2998;48.206;16.394;2023-03-21T06:47:05;36.30;;;16.63;;
5945;SDS011;2998;48.206;16.394;2023-03-21T06:49:35;43.10;;;17.80;;
5945;SDS011;2998;48.206;16.394;2023-03-21T06:56:24;34.83;;;15.93;;
5945;SDS011;2998;48.206;16.394;2023-03-21T06:58:54;45.13;;;16.90;;
5945;SDS011;2998;48.206;16.394;2023-03-21T07:05:46;24.40;;;16.63;;
5945;SDS011;2998;48.206;16.394;2023-03-21T07:08:16;28.40;;;17.90;;
5945;SDS011;2998;48.206;16.394;2023-03-21T07:10:45;18.70;;;14.10;;
5945;SDS011;2998;48.206;16.394;2023-03-21T07:13:15;19.17;;;15.30;;
5945;SDS011;2998;48.206;16.394;2023-03-21T07:15:44;17.80;;;13.97;;
5945;SDS011;2998;48.206;16.394;2023-03-21T07:22:33;13.70;;;12.20;;
5945;SDS011;2998;48.206;16.394;2023-03-21T07:25:02;15.23;;;12.03;;
5945;SDS011;2998;48.206;16.394;2023-03-21T07:31:58;15.47;;;11.90;;
5945;SDS011;2998;48.206;16.394;2023-03-21T07:34:28;13.40;;;11.03;;
5945;SDS011;2998;48.206;16.394;2023-03-21T07:36:59;18.40;;;13.27;;
5945;SDS011;2998;48.206;16.394;2023-03-21T07:40:02;13.70;;;12.30;;
5945;SDS011;2998;48.206;16.394;2023-03-21T07:46:55;12.47;;;11.10;;
5945;SDS011;2998;48.206;16.394;2023-03-21T07:49:24;12.23;;;11.07;;
5945;SDS011;2998;48.206;16.394;2023-03-21T07:51:54;15.13;;;10.87;;
5945;SDS011;2998;48.206;16.394;2023-03-21T07:54:24;12.07;;;10.23;;
5945;SDS011;2998;48.206;16.394;2023-03-21T07:56:56;10.77;;;9.87;;
5945;SDS011;2998;48.206;16.394;2023-03-21T07:59:29;11.10;;;9.93;;
5945;SDS011;2998;48.206;16.394;2023-03-21T08:01:58;20.37;;;12.73;;
5945;SDS011;2998;48.206;16.394;2023-03-21T08:04:27;11.40;;;9.90;;
5945;SDS011;2998;48.206;16.394;2023-03-21T08:06:57;11.67;;;10.47;;
5945;SDS011;2998;48.206;16.394;2023-03-21T08:13:33;10.47;;;9.47;;
5945;SDS011;2998;48.206;16.394;2023-03-21T08:16:03;10.40;;;8.67;;
5945;SDS011;2998;48.206;16.394;2023-03-21T08:22:57;11.73;;;10.07;;
5945;SDS011;2998;48.206;16.394;2023-03-21T08:25:27;10.53;;;9.53;;
5945;SDS011;2998;48.206;16.394;2023-03-21T08:27:56;10.97;;;9.70;;
5945;SDS011;2998;48.206;16.394;2023-03-21T08:30:28;11.20;;;8.97;;
5945;SDS011;2998;48.206;16.394;2023-03-21T08:32:58;10.20;;;7.83;;
5945;SDS011;2998;48.206;16.394;2023-03-21T08:35:28;10.40;;;9.00;;
5945;SDS011;2998;48.206;16.394;2023-03-21T08:37:58;9.93;;;8.93;;
5945;SDS011;2998;48.206;16.394;2023-03-21T08:40:28;8.70;;;8.00;;
5945;SDS011;2998;48.206;16.394;2023-03-21T08:42:57;11.33;;;10.23;;
5945;SDS011;2998;48.206;16.394;2023-03-21T08:49:41;9.00;;;8.27;;
5945;SDS011;2998;48.206;16.394;2023-03-21T08:52:13;8.17;;;7.37;;
5945;SDS011;2998;48.206;16.394;2023-03-21T08:58:49;8.20;;;7.00;;
5945;SDS011;2998;48.206;16.394;2023-03-21T09:01:19;6.83;;;6.23;;
5945;SDS011;2998;48.206;16.394;2023-03-21T09:03:48;7.03;;;6.40;;
5945;SDS011;2998;48.206;16.394;2023-03-21T09:06:19;7.70;;;6.97;;
5945;SDS011;2998;48.206;16.394;2023-03-21T09:08:50;6.43;;;5.93;;
5945;SDS011;2998;48.206;16.394;2023-03-21T09:11:27;7.07;;;6.50;;
5945;SDS011;2998;48.206;16.394;2023-03-21T09:13:56;11.03;;;7.00;;
5945;SDS011;2998;48.206;16.394;2023-03-21T09:16:25;7.63;;;6.97;;
5945;SDS011;2998;48.206;16.394;2023-03-21T09:18:55;7.13;;;6.53;;
5945;SDS011;2998;48.206;16.394;2023-03-21T09:21:30;7.00;;;6.40;;
5945;SDS011;2998;48.206;16.394;2023-03-21T09:24:00;6.93;;;6.23;;
5945;SDS011;2998;48.206;16.394;2023-03-21T09:26:38;7.93;;;6.90;;
5945;SDS011;2998;48.206;16.394;2023-03-21T09:33:36;8.30;;;7.67;;
5945;SDS011;2998;48.206;16.394;2023-03-21T09:36:08;8.10;;;7.40;;
5945;SDS011;2998;48.206;16.394;2023-03-21T09:38:42;9.20;;;8.30;;
5945;SDS011;2998;48.206;16.394;2023-03-21T09:45:27;9.37;;;8.17;;
5945;SDS011;2998;48.206;16.394;2023-03-21T09:48:00;9.33;;;7.20;;
5945;SDS011;2998;48.206;16.394;2023-03-21T09:54:47;8.37;;;7.60;;
5945;SDS011;2998;48.206;16.394;2023-03-21T09:57:21;8.93;;;8.10;;
5945;SDS011;2998;48.206;16.394;2023-03-21T10:04:11;8.63;;;7.90;;
5945;SDS011;2998;48.206;16.394;2023-03-21T10:06:42;8.90;;;8.10;;
5945;SDS011;2998;48.206;16.394;2023-03-21T10:09:14;10.53;;;7.97;;
5945;SDS011;2998;48.206;16.394;2023-03-21T10:11:51;8.23;;;7.30;;
5945;SDS011;2998;48.206;16.394;2023-03-21T10:14:25;8.93;;;8.03;;
5945;SDS011;2998;48.206;16.394;2023-03-21T10:16:57;7.80;;;7.13;;
5945;SDS011;2998;48.206;16.394;2023-03-21T10:19:29;8.57;;;7.87;;
5945;SDS011;2998;48.206;16.394;2023-03-21T10:21:59;13.23;;;8.43;;
5945;SDS011;2998;48.206;16.394;2023-03-21T10:24:31;9.00;;;8.10;;
5945;SDS011;2998;48.206;16.394;2023-03-21T10:27:03;8.63;;;7.83;;
5945;SDS011;2998;48.206;16.394;2023-03-21T10:29:33;7.83;;;7.00;;
5945;SDS011;2998;48.206;16.394;2023-03-21T10:32:06;9.23;;;7.00;;
5945;SDS011;2998;48.206;16.394;2023-03-21T10:34:38;7.10;;;6.47;;
5945;SDS011;2998;48.206;16.394;2023-03-21T10:37:10;7.00;;;6.00;;
5945;SDS011;2998;48.206;16.394;2023-03-21T10:39:40;10.87;;;7.37;;
5945;SDS011;2998;48.206;16.394;2023-03-21T10:42:14;7.70;;;7.00;;
5945;SDS011;2998;48.206;16.394;2023-03-21T10:44:46;6.70;;;6.07;;
5945;SDS011;2998;48.206;16.394;2023-03-21T10:47:21;6.27;;;5.67;;
5945;SDS011;2998;48.206;16.394;2023-03-21T10:49:52;6.77;;;6.13;;
5945;SDS011;2998;48.206;16.394;2023-03-21T10:52:54;6.20;;;5.70;;
5945;SDS011;2998;48.206;16.394;2023-03-21T10:59:40;17.30;;;7.20;;
5945;SDS011;2998;48.206;16.394;2023-03-21T11:02:14;10.13;;;8.17;;
5945;SDS011;2998;48.206;16.394;2023-03-21T11:04:46;7.87;;;7.33;;
5945;SDS011;2998;48.206;16.394;2023-03-21T11:07:16;8.00;;;7.30;;
5945;SDS011;2998;48.206;16.394;2023-03-21T11:09:47;10.70;;;7.30;;
5945;SDS011;2998;48.206;16.394;2023-03-21T11:12:27;9.20;;;7.43;;
5945;SDS011;2998;48.206;16.394;2023-03-21T11:14:59;7.87;;;7.23;;
5945;SDS011;2998;48.206;16.394;2023-03-21T11:17:51;8.07;;;7.47;;
5945;SDS011;2998;48.206;16.394;2023-03-21T11:20:21;7.90;;;7.20;;
5945;SDS011;2998;48.206;16.394;2023-03-21T11:22:52;8.10;;;7.50;;
5945;SDS011;2998;48.206;16.394;2023-03-21T11:25:26;8.00;;;7.30;;
5945;SDS011;2998;48.206;16.394;2023-03-21T11:28:04;7.97;;;7.17;;
5945;SDS011;2998;48.206;16.394;2023-03-21T11:30:35;7.10;;;6.40;;
5945;SDS011;2998;48.206;16.394;2023-03-21T11:33:07;7.37;;;6.77;;
5945;SDS011;2998;48.206;16.394;2023-03-21T11:35:37;7.90;;;7.10;;
5945;SDS011;2998;48.206;16.394;2023-03-21T11:38:09;8.13;;;7.40;;
5945;SDS011;2998;48.206;16.394;2023-03-21T11:45:01;11.73;;;7.57;;
5945;SDS011;2998;48.206;16.394;2023-03-21T11:52:02;9.03;;;8.23;;
5945;SDS011;2998;48.206;16.394;2023-03-21T11:54:44;9.90;;;8.53;;
5945;SDS011;2998;48.206;16.394;2023-03-21T12:01:36;11.37;;;8.87;;
5945;SDS011;2998;48.206;16.394;2023-03-21T12:04:17;9.47;;;8.57;;
5945;SDS011;2998;48.206;16.394;2023-03-21T12:11:03;10.70;;;9.70;;
5945;SDS011;2998;48.206;16.394;2023-03-21T12:13:41;10.03;;;9.17;;
5945;SDS011;2998;48.206;16.394;2023-03-21T12:19:11;11.57;;;10.07;;
5945;SDS011;2998;48.206;16.394;2023-03-21T12:26:10;14.63;;;9.40;;
5945;SDS011;2998;48.206;16.394;2023-03-21T12:28:45;12.07;;;8.83;;
5945;SDS011;2998;48.206;16.394;2023-03-21T12:31:21;17.07;;;8.90;;
5945;SDS011;2998;48.206;16.394;2023-03-21T12:34:03;10.00;;;8.70;;
5945;SDS011;2998;48.206;16.394;2023-03-21T12:36:47;9.63;;;8.83;;
5945;SDS011;2998;48.206;16.394;2023-03-21T12:39:25;9.73;;;7.47;;
5945;SDS011;2998;48.206;16.394;2023-03-21T12:46:18;9.20;;;7.93;;
5945;SDS011;2998;48.206;16.394;2023-03-21T12:53:08;10.53;;;7.50;;
5945;SDS011;2998;48.206;16.394;2023-03-21T12:55:55;8.13;;;7.43;;
5945;SDS011;2998;48.206;16.394;2023-03-21T13:02:41;19.80;;;7.07;;
5945;SDS011;2998;48.206;16.394;2023-03-21T13:05:15;10.17;;;7.20;;
5945;SDS011;2998;48.206;16.394;2023-03-21T13:11:57;9.33;;;7.73;;
5945;SDS011;2998;48.206;16.394;2023-03-21T13:14:27;7.17;;;6.20;;
5945;SDS011;2998;48.206;16.394;2023-03-21T13:17:02;10.90;;;6.63;;
5945;SDS011;2998;48.206;16.394;2023-03-21T13:23:59;6.47;;;5.63;;
5945;SDS011;2998;48.206;16.394;2023-03-21T13:26:36;6.83;;;5.93;;
5945;SDS011;2998;48.206;16.394;2023-03-21T13:33:27;5.80;;;5.30;;
5945;SDS011;2998;48.206;16.394;2023-03-21T13:35:58;7.03;;;5.67;;
5945;SDS011;2998;48.206;16.394;2023-03-21T13:42:49;4.80;;;4.40;;
5945;SDS011;2998;48.206;16.394;2023-03-21T13:45:23;4.70;;;4.30;;
5945;SDS011;2998;48.206;16.394;2023-03-21T13:47:55;5.50;;;5.00;;
5945;SDS011;2998;48.206;16.394;2023-03-21T13:57:35;7.87;;;4.33;;
5945;SDS011;2998;48.206;16.394;2023-03-21T14:00:18;4.70;;;4.40;;
5945;SDS011;2998;48.206;16.394;2023-03-21T14:02:52;4.60;;;4.20;;
5945;SDS011;2998;48.206;16.394;2023-03-21T14:05:25;4.30;;;4.00;;
5945;SDS011;2998;48.206;16.394;2023-03-21T14:07:57;12.60;;;5.70;;
5945;SDS011;2998;48.206;16.394;2023-03-21T14:10:40;5.73;;;4.77;;
5945;SDS011;2998;48.206;16.394;2023-03-21T14:13:11;4.70;;;4.30;;
5945;SDS011;2998;48.206;16.394;2023-03-21T14:15:45;5.80;;;5.30;;
5945;SDS011;2998;48.206;16.394;2023-03-21T14:18:22;6.20;;;5.70;;
5945;SDS011;2998;48.206;16.394;2023-03-21T14:21:01;4.20;;;3.90;;
5945;SDS011;2998;48.206;16.394;2023-03-21T14:27:53;4.87;;;4.43;;
5945;SDS011;2998;48.206;16.394;2023-03-21T14:30:23;4.30;;;4.00;;
5945;SDS011;2998;48.206;16.394;2023-03-21T14:32:56;3.60;;;3.30;;
5945;SDS011;2998;48.206;16.394;2023-03-21T14:39:39;2.20;;;2.10;;
5945;SDS011;2998;48.206;16.394;2023-03-21T14:42:10;84.27;;;6.63;;
5945;SDS011;2998;48.206;16.394;2023-03-21T14:49:10;5.20;;;2.40;;
5945;SDS011;2998;48.206;16.394;2023-03-21T14:51:40;6.73;;;3.40;;
5945;SDS011;2998;48.206;16.394;2023-03-21T14:58:30;3.73;;;3.40;;
5945;SDS011;2998;48.206;16.394;2023-03-21T15:01:01;4.10;;;3.80;;
5945;SDS011;2998;48.206;16.394;2023-03-21T15:03:32;3.63;;;3.33;;
5945;SDS011;2998;48.206;16.394;2023-03-21T15:06:05;3.97;;;3.73;;
5945;SDS011;2998;48.206;16.394;2023-03-21T15:08:51;4.20;;;3.90;;
5945;SDS011;2998;48.206;16.394;2023-03-21T15:11:27;4.10;;;3.77;;
5945;SDS011;2998;48.206;16.394;2023-03-21T15:18:12;3.27;;;2.97;;
5945;SDS011;2998;48.206;16.394;2023-03-21T15:25:12;3.60;;;3.30;;
5945;SDS011;2998;48.206;16.394;2023-03-21T15:27:47;2.90;;;2.60;;
5945;SDS011;2998;48.206;16.394;2023-03-21T15:34:35;3.47;;;2.43;;
5945;SDS011;2998;48.206;16.394;2023-03-21T15:37:06;2.70;;;2.50;;
5945;SDS011;2998;48.206;16.394;2023-03-21T15:43:59;2.90;;;2.70;;
5945;SDS011;2998;48.206;16.394;2023-03-21T15:46:31;2.73;;;2.40;;
5945;SDS011;2998;48.206;16.394;2023-03-21T15:49:06;2.70;;;2.27;;
5945;SDS011;2998;48.206;16.394;2023-03-21T15:51:36;2.30;;;2.10;;
5945;SDS011;2998;48.206;16.394;2023-03-21T15:54:08;2.53;;;2.33;;
5945;SDS011;2998;48.206;16.394;2023-03-21T15:56:41;2.47;;;2.30;;
5945;SDS011;2998;48.206;16.394;2023-03-21T15:59:14;8.70;;;3.23;;
5945;SDS011;2998;48.206;16.394;2023-03-21T16:02:33;5.83;;;2.83;;
5945;SDS011;2998;48.206;16.394;2023-03-21T16:09:15;3.10;;;2.03;;
5945;SDS011;2998;48.206;16.394;2023-03-21T16:11:51;1.73;;;1.63;;
5945;SDS011;2998;48.206;16.394;2023-03-21T16:14:22;1.80;;;1.70;;
5945;SDS011;2998;48.206;16.394;2023-03-21T16:16:53;1.80;;;1.70;;
5945;SDS011;2998;48.206;16.394;2023-03-21T16:19:23;2.23;;;1.80;;
5945;SDS011;2998;48.206;16.394;2023-03-21T16:21:55;2.70;;;1.43;;
5945;SDS011;2998;48.206;16.394;2023-03-21T16:24:24;2.23;;;1.00;;
5945;SDS011;2998;48.206;16.394;2023-03-21T16:26:54;2.93;;;1.10;;
5945;SDS011;2998;48.206;16.394;2023-03-21T16:29:24;1.23;;;1.07;;
5945;SDS011;2998;48.206;16.394;2023-03-21T16:31:54;12.33;;;2.70;;
5945;SDS011;2998;48.206;16.394;2023-03-21T16:34:23;17.00;;;4.10;;
5945;SDS011;2998;48.206;16.394;2023-03-21T16:41:18;4.70;;;2.43;;
5945;SDS011;2998;48.206;16.394;2023-03-21T16:43:48;2.30;;;1.57;;
5945;SDS011;2998;48.206;16.394;2023-03-21T16:50:40;13.00;;;2.87;;
5945;SDS011;2998;48.206;16.394;2023-03-21T16:53:10;4.93;;;3.00;;
5945;SDS011;2998;48.206;16.394;2023-03-21T16:59:57;4.87;;;4.40;;
5945;SDS011;2998;48.206;16.394;2023-03-21T17:02:27;4.83;;;3.70;;
5945;SDS011;2998;48.206;16.394;2023-03-21T17:04:56;4.20;;;3.53;;
5945;SDS011;2998;48.206;16.394;2023-03-21T17:11:41;5.63;;;4.40;;
5945;SDS011;2998;48.206;16.394;2023-03-21T17:14:11;3.40;;;3.20;;
5945;SDS011;2998;48.206;16.394;2023-03-21T17:20:55;7.13;;;2.63;;
5945;SDS011;2998;48.206;16.394;2023-03-21T17:23:25;2.83;;;2.63;;
5945;SDS011;2998;48.206;16.394;2023-03-21T17:25:55;7.00;;;4.47;;
5945;SDS011;2998;48.206;16.394;2023-03-21T17:32:45;4.90;;;4.17;;
5945;SDS011;2998;48.206;16.394;2023-03-21T17:35:14;4.47;;;4.10;;
5945;SDS011;2998;48.206;16.394;2023-03-21T17:42:08;6.97;;;4.20;;
5945;SDS011;2998;48.206;16.394;2023-03-21T17:44:41;10.70;;;5.90;;
5945;SDS011;2998;48.206;16.394;2023-03-21T17:51:31;11.30;;;10.20;;
5945;SDS011;2998;48.206;16.394;2023-03-21T17:54:00;6.20;;;5.70;;
5945;SDS011;2998;48.206;16.394;2023-03-21T17:56:31;6.90;;;6.30;;
5945;SDS011;2998;48.206;16.394;2023-03-21T18:00:04;7.33;;;5.60;;
5945;SDS011;2998;48.206;16.394;2023-03-21T18:07:04;12.13;;;5.10;;
5945;SDS011;2998;48.206;16.394;2023-03-21T18:09:39;10.40;;;5.43;;
5945;SDS011;2998;48.206;16.394;2023-03-21T18:16:21;12.80;;;8.43;;
5945;SDS011;2998;48.206;16.394;2023-03-21T18:23:16;11.10;;;8.20;;
5945;SDS011;2998;48.206;16.394;2023-03-21T18:25:46;8.83;;;7.10;;
5945;SDS011;2998;48.206;16.394;2023-03-21T18:32:33;7.13;;;6.17;;
5945;SDS011;2998;48.206;16.394;2023-03-21T18:35:04;47.80;;;21.10;;
5945;SDS011;2998;48.206;16.394;2023-03-21T18:41:55;5.63;;;5.10;;
5945;SDS011;2998;48.206;16.394;2023-03-21T18:48:35;13.60;;;8.00;;
5945;SDS011;2998;48.206;16.394;2023-03-21T18:51:05;11.27;;;7.43;;
5945;SDS011;2998;48.206;16.394;2023-03-21T18:58:02;10.53;;;7.37;;
5945;SDS011;2998;48.206;16.394;2023-03-21T19:00:31;11.60;;;7.67;;
5945;SDS011;2998;48.206;16.394;2023-03-21T19:07:21;15.10;;;9.40;;
5945;SDS011;2998;48.206;16.394;2023-03-21T19:09:51;15.23;;;8.57;;
5945;SDS011;2998;48.206;16.394;2023-03-21T19:12:41;17.87;;;12.30;;
5945;SDS011;2998;48.206;16.394;2023-03-21T19:15:11;16.60;;;9.10;;
5945;SDS011;2998;48.206;16.394;2023-03-21T19:17:43;10.20;;;7.23;;
5945;SDS011;2998;48.206;16.394;2023-03-21T19:20:33;14.53;;;11.53;;
5945;SDS011;2998;48.206;16.394;2023-03-21T19:23:02;8.53;;;7.63;;
5945;SDS011;2998;48.206;16.394;2023-03-21T19:26:26;13.60;;;9.20;;
5945;SDS011;2998;48.206;16.394;2023-03-21T19:33:03;17.93;;;12.13;;
5945;SDS011;2998;48.206;16.394;2023-03-21T19:35:33;13.20;;;10.40;;
5945;SDS011;2998;48.206;16.394;2023-03-21T19:38:06;11.27;;;9.20;;
5945;SDS011;2998;48.206;16.394;2023-03-21T19:40:38;11.10;;;9.80;;
5945;SDS011;2998;48.206;16.394;2023-03-21T19:43:07;17.13;;;10.30;;
5945;SDS011;2998;48.206;16.394;2023-03-21T19:45:57;16.80;;;11.93;;
5945;SDS011;2998;48.206;16.394;2023-03-21T19:52:36;15.60;;;10.13;;
5945;SDS011;2998;48.206;16.394;2023-03-21T19:59:18;7.77;;;6.57;;
5945;SDS011;2998;48.206;16.394;2023-03-21T20:01:47;9.57;;;6.27;;
5945;SDS011;2998;48.206;16.394;2023-03-21T20:08:36;11.73;;;8.67;;
5945;SDS011;2998;48.206;16.394;2023-03-21T20:11:25;8.03;;;7.20;;
5945;SDS011;2998;48.206;16.394;2023-03-21T20:18:01;9.80;;;7.77;;
5945;SDS011;2998;48.206;16.394;2023-03-21T20:24:58;6.50;;;5.90;;
5945;SDS011;2998;48.206;16.394;2023-03-21T20:27:33;6.17;;;5.50;;
5945;SDS011;2998;48.206;16.394;2023-03-21T20:34:23;8.10;;;6.23;;
5945;SDS011;2998;48.206;16.394;2023-03-21T20:36:56;6.20;;;5.63;;
5945;SDS011;2998;48.206;16.394;2023-03-21T20:43:39;5.53;;;4.47;;
5945;SDS011;2998;48.206;16.394;2023-03-21T20:50:56;5.17;;;4.67;;
5945;SDS011;2998;48.206;16.394;2023-03-21T20:53:27;9.13;;;6.77;;
5945;SDS011;2998;48.206;16.394;2023-03-21T21:00:12;10.90;;;7.83;;
5945;SDS011;2998;48.206;16.394;2023-03-21T21:02:43;11.00;;;8.03;;
5945;SDS011;2998;48.206;16.394;2023-03-21T21:09:40;8.67;;;6.47;;
5945;SDS011;2998;48.206;16.394;2023-03-21T21:12:10;15.63;;;5.47;;
5945;SDS011;2998;48.206;16.394;2023-03-21T21:14:40;7.07;;;5.50;;
5945;SDS011;2998;48.206;16.394;2023-03-21T21:17:13;4.90;;;4.60;;
5945;SDS011;2998;48.206;16.394;2023-03-21T21:24:18;4.20;;;3.60;;
5945;SDS011;2998;48.206;16.394;2023-03-21T21:26:48;4.50;;;4.10;;
5945;SDS011;2998;48.206;16.394;2023-03-21T21:29:17;5.60;;;5.20;;
5945;SDS011;2998;48.206;16.394;2023-03-21T21:36:01;4.87;;;4.47;;
5945;SDS011;2998;48.206;16.394;2023-03-21T21:38:30;5.23;;;4.77;;
5945;SDS011;2998;48.206;16.394;2023-03-21T21:45:19;4.87;;;4.57;;
5945;SDS011;2998;48.206;16.394;2023-03-21T21:47:48;6.57;;;6.07;;
5945;SDS011;2998;48.206;16.394;2023-03-21T21:50:18;7.47;;;6.67;;
5945;SDS011;2998;48.206;16.394;2023-03-21T21:52:49;8.67;;;7.87;;
5945;SDS011;2998;48.206;16.394;2023-03-21T21:55:21;7.87;;;7.27;;
5945;SDS011;2998;48.206;16.394;2023-03-21T21:57:50;7.63;;;6.93;;
5945;SDS011;2998;48.206;16.394;2023-03-21T22:00:24;6.70;;;6.20;;
5945;SDS011;2998;48.206;16.394;2023-03-21T22:02:54;5.87;;;5.47;;
5945;SDS011;2998;48.206;16.394;2023-03-21T22:05:23;5.90;;;5.40;;
5945;SDS011;2998;48.206;16.394;2023-03-21T22:07:54;6.63;;;6.13;;
5945;SDS011;2998;48.206;16.394;2023-03-21T22:10:24;7.97;;;7.13;;
5945;SDS011;2998;48.206;16.394;2023-03-21T22:12:54;6.90;;;6.20;;
5945;SDS011;2998;48.206;16.394;2023-03-21T22:15:23;7.27;;;5.90;;
5945;SDS011;2998;48.206;16.394;2023-03-21T22:17:52;6.17;;;5.57;;
5945;SDS011;2998;48.206;16.394;2023-03-21T22:20:22;6.67;;;5.77;;
5945;SDS011;2998;48.206;16.394;2023-03-21T22:31:42;7.10;;;6.40;;
5945;SDS011;2998;48.206;16.394;2023-03-21T22:34:12;7.77;;;6.60;;
5945;SDS011;2998;48.206;16.394;2023-03-21T22:40:55;5.40;;;5.00;;
5945;SDS011;2998;48.206;16.394;2023-03-21T22:47:44;5.07;;;4.53;;